createdAt,value
2022-07-30T00:00:27.055Z,0.81
2022-07-30T00:01:12.142Z,0.81
2022-07-30T00:02:12.499Z,0.52
2022-07-30T00:03:15.502Z,0.52
2022-07-30T00:04:11.179Z,0.5
2022-07-30T00:05:13.994Z,0.88
2022-07-30T00:06:14.867Z,0.93
2022-07-30T00:07:04.806Z,0.93
2022-07-30T00:08:15.723Z,0.92
2022-07-30T00:09:17.137Z,0.65
2022-07-30T00:10:13.658Z,0.65
2022-07-30T00:11:17.089Z,0.86
2022-07-30T00:12:12.498Z,0.86
2022-07-30T00:13:16.414Z,0.48
2022-07-30T00:14:13.907Z,0.97
2022-07-30T00:15:17.265Z,0.97
2022-07-30T00:16:14.389Z,0.64
2022-07-30T00:17:14.472Z,0.95
2022-07-30T00:18:15.521Z,0.95
2022-07-30T00:19:13.568Z,0.34
2022-07-30T00:20:14.691Z,0.34
2022-07-30T00:21:34.520Z,0.34
2022-07-30T00:22:10.078Z,0.61
2022-07-30T00:23:14.968Z,0.61
2022-07-30T00:24:14.423Z,0.61
2022-07-30T00:25:14.878Z,0.58
2022-07-30T00:26:12.268Z,0.7
2022-07-30T00:27:12.817Z,0.7
2022-07-30T00:28:12.260Z,0.7
2022-07-30T00:29:12.622Z,0.52
2022-07-30T00:30:13.696Z,0.97
2022-07-30T00:31:10.933Z,0.44
2022-07-30T00:32:14.201Z,0.49
2022-07-30T00:33:12.872Z,0.49
2022-07-30T00:34:15.248Z,0.66
2022-07-30T00:35:14.668Z,0.52
2022-07-30T00:36:11.509Z,0.66
2022-07-30T00:37:13.070Z,0.66
2022-07-30T00:38:13.134Z,0.64
2022-07-30T00:39:17.750Z,0.95
2022-07-30T00:40:04.360Z,0.95
2022-07-30T00:41:11.155Z,0.62
2022-07-30T00:42:16.557Z,0.62
2022-07-30T00:43:15.711Z,0.82
2022-07-30T00:44:12.507Z,0.82
2022-07-30T00:45:13.319Z,0.76
2022-07-30T00:46:14.652Z,0.99
2022-07-30T00:47:15.944Z,0.99
2022-07-30T00:48:13.720Z,0.96
2022-07-30T00:49:16.237Z,0.6
2022-07-30T00:50:23.722Z,0.6
2022-07-30T00:51:05.363Z,0.51
2022-07-30T00:52:18.703Z,0.51
2022-07-30T00:53:13.013Z,0.48
2022-07-30T00:54:14.822Z,0.48
2022-07-30T00:55:18.175Z,0.68
2022-07-30T00:56:08.952Z,0.68
2022-07-30T00:57:15.531Z,0.84
2022-07-30T00:58:22.750Z,0.61
2022-07-30T00:59:13.035Z,0.61
2022-07-30T01:00:17.226Z,0.59
2022-07-30T01:01:11.705Z,0.59
2022-07-30T01:02:13.412Z,0.6
2022-07-30T01:03:14.707Z,0.65
2022-07-30T01:04:12.673Z,0.65
2022-07-30T01:05:14.870Z,0.74
2022-07-30T01:06:06.641Z,0.74
2022-07-30T01:07:15.958Z,0.82
2022-07-30T01:08:13.671Z,0.82
2022-07-30T01:09:15.200Z,0.59
2022-07-30T01:10:13.564Z,0.59
2022-07-30T01:11:12.516Z,0.57
2022-07-30T01:12:14.093Z,0.57
2022-07-30T01:13:13.244Z,0.49
2022-07-30T01:14:16.788Z,0.49
2022-07-30T01:15:14.339Z,0.73
2022-07-30T01:16:16.282Z,0.73
2022-07-30T01:17:11.948Z,0.82
2022-07-30T01:18:14.778Z,0.89
2022-07-30T01:19:18.038Z,0.64
2022-07-30T01:20:15.487Z,1.04
2022-07-30T01:21:12.456Z,1.43
2022-07-30T01:22:14.227Z,0.95
2022-07-30T01:23:12.773Z,0.51
2022-07-30T01:24:14.597Z,0.85
2022-07-30T01:25:15.991Z,0.91
2022-07-30T01:26:14.061Z,0.91
2022-07-30T01:27:21.954Z,0.91
2022-07-30T01:28:20.491Z,0.58
2022-07-30T01:30:11.211Z,0.52
2022-07-30T01:31:14.227Z,0.52
2022-07-30T01:32:13.976Z,0.52
2022-07-30T01:33:14.940Z,1.11
2022-07-30T01:34:13.599Z,1.35
2022-07-30T01:35:17.593Z,0.48
2022-07-30T01:36:14.148Z,0.48
2022-07-30T01:37:15.282Z,0.48
2022-07-30T01:38:15.328Z,1.25
2022-07-30T01:39:15.504Z,1.25
2022-07-30T01:40:04.880Z,1.25
2022-07-30T01:41:17.286Z,0.6
2022-07-30T01:42:08.029Z,0.55
2022-07-30T01:43:12.626Z,0.76
2022-07-30T01:44:13.122Z,0.76
2022-07-30T01:45:16.751Z,0.84
2022-07-30T01:46:13.878Z,0.84
2022-07-30T01:47:13.921Z,0.84
2022-07-30T01:48:12.259Z,0.52
2022-07-30T01:49:15.201Z,0.61
2022-07-30T01:50:13.521Z,0.61
2022-07-30T01:51:16.543Z,0.4
2022-07-30T01:52:05.190Z,0.4
2022-07-30T01:53:13.647Z,0.67
2022-07-30T01:54:13.759Z,0.56
2022-07-30T01:55:19.471Z,0.56
2022-07-30T01:56:13.657Z,0.48
2022-07-30T01:57:14.303Z,0.48
2022-07-30T01:58:10.795Z,0.86
2022-07-30T01:59:13.591Z,0.56
2022-07-30T02:00:13.217Z,0.56
2022-07-30T02:01:12.300Z,0.47
2022-07-30T02:02:20.014Z,0.47
2022-07-30T02:03:12.065Z,0.51
2022-07-30T02:04:12.503Z,0.51
2022-07-30T02:05:11.049Z,0.58
2022-07-30T02:06:18.996Z,0.58
2022-07-30T02:07:14.829Z,0.45
2022-07-30T02:08:19.117Z,0.65
2022-07-30T02:09:15.216Z,0.65
2022-07-30T02:10:07.833Z,0.52
2022-07-30T02:11:17.084Z,1.4
2022-07-30T02:12:13.071Z,1.4
2022-07-30T02:13:15.498Z,1.4
2022-07-30T02:14:13.536Z,0.41
2022-07-30T02:15:04.707Z,0.48
2022-07-30T02:16:17.627Z,0.63
2022-07-30T02:17:20.890Z,0.63
2022-07-30T02:18:12.982Z,0.62
2022-07-30T02:19:16.032Z,0.64
2022-07-30T02:20:12.656Z,0.64
2022-07-30T02:21:13.633Z,0.72
2022-07-30T02:22:17.337Z,0.72
2022-07-30T02:23:13.009Z,0.82
2022-07-30T02:24:15.708Z,0.82
2022-07-30T02:25:10.588Z,0.78
2022-07-30T02:26:13.408Z,0.76
2022-07-30T02:27:13.037Z,0.39
2022-07-30T02:28:18.194Z,0.39
2022-07-30T02:29:15.811Z,0.49
2022-07-30T02:30:13.131Z,0.57
2022-07-30T02:31:19.968Z,0.57
2022-07-30T02:32:15.762Z,0.57
2022-07-30T02:33:14.083Z,0.57
2022-07-30T02:34:13.721Z,0.82
2022-07-30T02:35:13.594Z,0.82
2022-07-30T02:36:14.591Z,0.95
2022-07-30T02:37:17.294Z,0.61
2022-07-30T02:38:11.828Z,0.61
2022-07-30T02:39:14.476Z,0.59
2022-07-30T02:40:14.535Z,0.59
2022-07-30T02:41:12.736Z,0.75
2022-07-30T02:42:12.458Z,0.6
2022-07-30T02:43:16.873Z,0.6
2022-07-30T02:44:12.822Z,0.6
2022-07-30T02:45:15.129Z,0.93
2022-07-30T02:46:14.000Z,0.68
2022-07-30T02:47:15.926Z,0.68
2022-07-30T02:48:11.879Z,0.31
2022-07-30T02:49:12.374Z,0.35
2022-07-30T02:50:11.503Z,0.79
2022-07-30T02:51:24.699Z,0.6
2022-07-30T02:52:05.142Z,0.57
2022-07-30T02:53:17.609Z,0.57
2022-07-30T02:54:15.441Z,0.64
2022-07-30T02:55:18.135Z,0.64
2022-07-30T02:56:05.436Z,0.95
2022-07-30T02:57:20.530Z,0.95
2022-07-30T02:58:12.777Z,0.72
2022-07-30T02:59:13.478Z,0.72
2022-07-30T03:00:11.248Z,0.72
2022-07-30T03:01:13.748Z,1.01
2022-07-30T03:02:12.731Z,1.01
2022-07-30T03:03:14.998Z,1.01
2022-07-30T03:04:14.912Z,0.86
2022-07-30T03:05:13.602Z,0.54
2022-07-30T03:06:10.380Z,0.54
2022-07-30T03:07:14.873Z,0.54
2022-07-30T03:08:21.292Z,0.68
2022-07-30T03:09:18.853Z,0.77
2022-07-30T03:10:09.607Z,0.88
2022-07-30T03:11:16.701Z,0.88
2022-07-30T03:12:13.111Z,0.72
2022-07-30T03:13:19.258Z,0.72
2022-07-30T03:14:16.227Z,0.72
2022-07-30T03:15:05.369Z,0.78
2022-07-30T03:16:20.871Z,0.79
2022-07-30T03:17:24.447Z,0.79
2022-07-30T03:18:14.634Z,0.57
2022-07-30T03:19:15.025Z,0.73
2022-07-30T03:20:16.596Z,0.73
2022-07-30T03:21:12.935Z,0.5
2022-07-30T03:22:15.037Z,0.5
2022-07-30T03:23:12.948Z,0.82
2022-07-30T03:24:11.795Z,0.75
2022-07-30T03:25:04.711Z,0.75
2022-07-30T03:26:16.818Z,0.75
2022-07-30T03:27:12.030Z,0.75
2022-07-30T03:28:09.678Z,0.48
2022-07-30T03:29:11.943Z,0.58
2022-07-30T03:30:12.173Z,0.77
2022-07-30T03:31:14.126Z,0.65
2022-07-30T03:32:11.685Z,0.65
2022-07-30T03:33:19.536Z,0.71
2022-07-30T03:34:14.843Z,0.71
2022-07-30T03:35:20.202Z,0.55
2022-07-30T03:36:16.344Z,0.55
2022-07-30T03:37:16.664Z,1.41
2022-07-30T03:38:17.205Z,0.94
2022-07-30T03:39:04.944Z,0.94
2022-07-30T03:40:12.018Z,0.75
2022-07-30T03:41:16.065Z,0.49
2022-07-30T03:42:13.533Z,0.49
2022-07-30T03:43:34.369Z,0.85
2022-07-30T03:44:12.053Z,0.97
2022-07-30T03:45:18.574Z,0.97
2022-07-30T03:46:14.550Z,1.28
2022-07-30T03:47:16.565Z,0.69
2022-07-30T03:48:13.399Z,0.45
2022-07-30T03:49:17.594Z,0.45
2022-07-30T03:50:12.697Z,0.45
2022-07-30T03:51:18.775Z,0.56
2022-07-30T03:52:13.259Z,0.7
2022-07-30T03:53:08.958Z,0.7
2022-07-30T03:54:15.383Z,0.56
2022-07-30T03:55:12.474Z,0.94
2022-07-30T03:56:13.959Z,0.94
2022-07-30T03:57:20.225Z,0.94
2022-07-30T03:58:10.742Z,0.82
2022-07-30T03:59:15.152Z,0.52
2022-07-30T04:00:12.137Z,0.88
2022-07-30T04:01:15.550Z,0.88
2022-07-30T04:02:12.564Z,0.43
2022-07-30T04:03:13.779Z,0.43
2022-07-30T04:04:14.973Z,0.43
2022-07-30T04:05:16.897Z,0.57
2022-07-30T04:06:18.728Z,0.66
2022-07-30T04:07:17.179Z,0.78
2022-07-30T04:08:13.404Z,0.78
2022-07-30T04:09:19.615Z,0.86
2022-07-30T04:10:12.046Z,0.86
2022-07-30T04:11:18.308Z,0.67
2022-07-30T04:12:06.715Z,0.67
2022-07-30T04:13:17.988Z,0.74
2022-07-30T04:14:17.393Z,0.74
2022-07-30T04:16:43.112Z,0.44
2022-07-30T04:16:43.354Z,0.66
2022-07-30T04:17:12.833Z,0.44
2022-07-30T04:18:11.379Z,0.44
2022-07-30T04:19:18.562Z,0.92
2022-07-30T04:20:17.984Z,0.45
2022-07-30T04:21:19.459Z,1.38
2022-07-30T04:22:10.783Z,1.04
2022-07-30T04:23:14.100Z,0.86
2022-07-30T04:24:26.426Z,0.86
2022-07-30T04:25:05.754Z,0.86
2022-07-30T04:26:07.829Z,1.16
2022-07-30T04:27:19.667Z,1.16
2022-07-30T04:28:14.735Z,0.59
2022-07-30T04:29:20.306Z,0.59
2022-07-30T04:30:11.348Z,1.29
2022-07-30T04:31:11.425Z,1.05
2022-07-30T04:32:12.230Z,1.08
2022-07-30T04:33:10.157Z,1.08
2022-07-30T04:34:14.133Z,0.85
2022-07-30T04:35:52.825Z,0.95
2022-07-30T04:36:18.267Z,0.95
2022-07-30T04:37:12.864Z,0.83
2022-07-30T04:38:16.825Z,1.62
2022-07-30T04:39:20.991Z,1.62
2022-07-30T04:40:06.938Z,1.62
2022-07-30T04:41:11.331Z,1.62
2022-07-30T04:42:13.488Z,0.78
2022-07-30T04:43:10.164Z,1.9
2022-07-30T04:44:19.104Z,1.9
2022-07-30T04:45:14.407Z,0.94
2022-07-30T04:46:18.359Z,0.96
2022-07-30T04:47:12.372Z,1.46
2022-07-30T04:48:15.971Z,1.08
2022-07-30T04:49:15.344Z,1.08
2022-07-30T04:50:12.019Z,0.98
2022-07-30T04:51:14.505Z,0.98
2022-07-30T04:52:15.326Z,1.15
2022-07-30T04:53:10.556Z,1.06
2022-07-30T04:54:17.911Z,1.06
2022-07-30T04:55:14.363Z,1.49
2022-07-30T04:56:13.629Z,1.49
2022-07-30T04:57:13.408Z,1.49
2022-07-30T04:58:10.854Z,0.87
2022-07-30T04:59:12.530Z,0.87
2022-07-30T05:00:15.768Z,1.26
2022-07-30T05:01:13.140Z,1.24
2022-07-30T05:02:13.127Z,1.22
2022-07-30T05:03:17.719Z,1.26
2022-07-30T05:04:05.075Z,1.26
2022-07-30T05:05:15.331Z,1.41
2022-07-30T05:06:15.059Z,1.06
2022-07-30T05:07:12.733Z,1.08
2022-07-30T05:08:12.892Z,1.08
2022-07-30T05:09:14.419Z,1.56
2022-07-30T05:10:06.438Z,1.01
2022-07-30T05:11:15.286Z,1.01
2022-07-30T05:12:12.533Z,1.38
2022-07-30T05:13:19.213Z,1.38
2022-07-30T05:14:09.114Z,1.19
2022-07-30T05:15:18.750Z,1.57
2022-07-30T05:16:12.213Z,1.57
2022-07-30T05:17:15.003Z,1.52
2022-07-30T05:18:13.995Z,0.85
2022-07-30T05:19:18.438Z,0.85
2022-07-30T05:20:17.973Z,1.14
2022-07-30T05:21:14.738Z,1.24
2022-07-30T05:22:12.296Z,1.24
2022-07-30T05:23:13.817Z,1.24
2022-07-30T05:24:14.289Z,1.64
2022-07-30T05:25:18.396Z,1.39
2022-07-30T05:26:15.241Z,1.39
2022-07-30T05:27:15.143Z,1.39
2022-07-30T05:28:13.231Z,1.45
2022-07-30T05:29:22.175Z,1.48
2022-07-30T05:30:15.135Z,1.39
2022-07-30T05:31:15.145Z,1.3
2022-07-30T05:32:12.948Z,1.3
2022-07-30T05:33:17.826Z,1.41
2022-07-30T05:34:13.452Z,1.41
2022-07-30T05:35:15.665Z,1.54
2022-07-30T05:36:15.135Z,1.54
2022-07-30T05:37:14.836Z,1.54
2022-07-30T05:38:18.676Z,1.47
2022-07-30T05:39:14.956Z,1.47
2022-07-30T05:40:09.003Z,1.64
2022-07-30T05:41:34.408Z,1.64
2022-07-30T05:42:14.205Z,1.78
2022-07-30T05:43:11.183Z,1.78
2022-07-30T05:44:12.922Z,1.22
2022-07-30T05:45:19.035Z,1.22
2022-07-30T05:46:14.253Z,1.35
2022-07-30T05:47:13.605Z,1.93
2022-07-30T05:48:15.109Z,1.93
2022-07-30T05:49:12.793Z,1.12
2022-07-30T05:50:15.632Z,1.12
2022-07-30T05:51:12.679Z,2.14
2022-07-30T05:52:12.995Z,1.72
2022-07-30T05:53:12.190Z,2.12
2022-07-30T05:54:16.787Z,2.12
2022-07-30T05:55:11.353Z,2.03
2022-07-30T05:56:13.912Z,1.82
2022-07-30T05:57:16.075Z,1.82
2022-07-30T05:58:16.343Z,1.82
2022-07-30T05:59:13.155Z,1.82
2022-07-30T06:00:14.427Z,1.42
2022-07-30T06:01:14.352Z,1.42
2022-07-30T06:02:10.164Z,1.69
2022-07-30T06:03:12.244Z,1.4
2022-07-30T06:04:11.152Z,1.66
2022-07-30T06:05:12.627Z,2.04
2022-07-30T06:06:11.312Z,2.04
2022-07-30T06:07:13.964Z,2.04
2022-07-30T06:08:13.237Z,1.41
2022-07-30T06:09:13.611Z,1.54
2022-07-30T06:10:14.124Z,1.65
2022-07-30T06:11:14.611Z,1.22
2022-07-30T06:12:12.984Z,1.22
2022-07-30T06:13:10.849Z,2.99
2022-07-30T06:14:10.282Z,1.49
2022-07-30T06:15:12.952Z,1.49
2022-07-30T06:16:13.888Z,1.68
2022-07-30T06:17:12.327Z,1.68
2022-07-30T06:18:12.895Z,1.6
2022-07-30T06:19:21.511Z,1.98
2022-07-30T06:20:15.636Z,1.98
2022-07-30T06:21:12.307Z,1.71
2022-07-30T06:22:14.915Z,1.71
2022-07-30T06:23:14.971Z,2
2022-07-30T06:24:14.232Z,2
2022-07-30T06:25:14.313Z,1.91
2022-07-30T06:26:14.559Z,1.95
2022-07-30T06:27:14.441Z,1.63
2022-07-30T06:28:39.612Z,1.63
2022-07-30T06:29:15.491Z,1.63
2022-07-30T06:30:13.724Z,1.77
2022-07-30T06:31:14.229Z,2.44
2022-07-30T06:32:10.272Z,2.68
2022-07-30T06:33:15.473Z,2.68
2022-07-30T06:34:13.941Z,2.68
2022-07-30T06:35:18.792Z,2.21
2022-07-30T06:36:16.191Z,1.98
2022-07-30T06:37:17.205Z,2.03
2022-07-30T06:38:10.324Z,2.03
2022-07-30T06:39:17.200Z,2.34
2022-07-30T06:40:07.275Z,3.16
2022-07-30T06:41:17.664Z,3.16
2022-07-30T06:42:12.428Z,3.69
2022-07-30T06:43:15.912Z,3.69
2022-07-30T06:44:11.087Z,3.69
2022-07-30T06:45:13.965Z,2.68
2022-07-30T06:46:14.564Z,2.12
2022-07-30T06:47:15.022Z,2.12
2022-07-30T06:48:16.131Z,1.42
2022-07-30T06:49:16.114Z,1.42
2022-07-30T06:50:14.940Z,2.32
2022-07-30T06:51:12.381Z,2.32
2022-07-30T06:52:20.905Z,2.08
2022-07-30T06:53:14.850Z,2.08
2022-07-30T06:54:13.401Z,2.54
2022-07-30T06:55:12.993Z,2.54
2022-07-30T06:56:17.769Z,2.6
2022-07-30T06:57:05.616Z,2.6
2022-07-30T06:58:27.633Z,2.35
2022-07-30T06:59:13.172Z,2.35
2022-07-30T07:00:19.668Z,2.22
2022-07-30T07:01:16.558Z,2.22
2022-07-30T07:02:13.780Z,2.29
2022-07-30T07:03:13.899Z,2.92
2022-07-30T07:04:14.529Z,2.92
2022-07-30T07:05:13.215Z,2.92
2022-07-30T07:06:11.557Z,1.95
2022-07-30T07:07:17.625Z,1.95
2022-07-30T07:08:12.835Z,1.95
2022-07-30T07:09:12.201Z,1.75
2022-07-30T07:10:11.852Z,2.05
2022-07-30T07:11:13.149Z,2.05
2022-07-30T07:12:14.396Z,1.97
2022-07-30T07:13:16.843Z,1.97
2022-07-30T07:14:10.631Z,2.28
2022-07-30T07:15:13.799Z,2.36
2022-07-30T07:16:15.064Z,2.36
2022-07-30T07:17:16.798Z,1.92
2022-07-30T07:18:10.462Z,2.68
2022-07-30T07:19:15.569Z,2.27
2022-07-30T07:20:12.147Z,2.27
2022-07-30T07:21:10.177Z,2.27
2022-07-30T07:22:14.877Z,2.27
2022-07-30T07:23:15.840Z,2.16
2022-07-30T07:24:11.104Z,2.19
2022-07-30T07:25:24.723Z,2.19
2022-07-30T07:26:04.829Z,1.74
2022-07-30T07:27:17.645Z,2.54
2022-07-30T07:28:13.862Z,1.48
2022-07-30T07:29:16.088Z,1.48
2022-07-30T07:30:10.956Z,1.99
2022-07-30T07:31:11.548Z,1.47
2022-07-30T07:32:11.789Z,1.47
2022-07-30T07:33:13.175Z,1.56
2022-07-30T07:34:19.296Z,1.56
2022-07-30T07:35:12.841Z,1.56
2022-07-30T07:36:14.319Z,1.56
2022-07-30T07:37:12.936Z,1.64
2022-07-30T07:38:05.478Z,1.67
2022-07-30T07:39:20.465Z,1.67
2022-07-30T07:40:05.770Z,1.67
2022-07-30T07:41:13.101Z,1.91
2022-07-30T07:42:13.059Z,1.91
2022-07-30T07:43:11.444Z,0.89
2022-07-30T07:44:19.865Z,1.64
2022-07-30T07:45:14.807Z,1.64
2022-07-30T07:46:13.617Z,1.35
2022-07-30T07:47:11.398Z,1.35
2022-07-30T07:48:09.902Z,1.75
2022-07-30T07:49:14.228Z,1.75
2022-07-30T07:50:15.252Z,0.87
2022-07-30T07:51:14.767Z,0.87
2022-07-30T07:52:13.439Z,0.87
2022-07-30T07:53:12.698Z,1.24
2022-07-30T07:54:24.612Z,1.62
2022-07-30T07:55:12.976Z,1.12
2022-07-30T07:56:15.258Z,1.12
2022-07-30T07:57:19.033Z,1.12
2022-07-30T07:58:13.283Z,1.32
2022-07-30T07:59:14.765Z,1.32
2022-07-30T08:00:14.808Z,1.49
2022-07-30T08:01:14.731Z,1.49
2022-07-30T08:02:13.546Z,1.55
2022-07-30T08:03:14.011Z,1.55
2022-07-30T08:04:16.050Z,1.48
2022-07-30T08:05:19.131Z,1.48
2022-07-30T08:06:09.803Z,1.48
2022-07-30T08:07:19.147Z,2.24
2022-07-30T08:08:05.044Z,1.14
2022-07-30T08:09:15.424Z,1.24
2022-07-30T08:10:15.871Z,1.24
2022-07-30T08:11:14.926Z,1.23
2022-07-30T08:12:16.535Z,1.23
2022-07-30T08:13:54.189Z,1.31
2022-07-30T08:14:15.304Z,1.31
2022-07-30T08:15:17.057Z,1.18
2022-07-30T08:16:15.599Z,1.18
2022-07-30T08:17:14.859Z,1.18
2022-07-30T08:18:20.908Z,1.18
2022-07-30T08:19:13.152Z,1.07
2022-07-30T08:20:13.435Z,0.79
2022-07-30T08:21:15.432Z,0.79
2022-07-30T08:22:12.276Z,0.79
2022-07-30T08:23:17.550Z,1.28
2022-07-30T08:24:19.342Z,1.28
2022-07-30T08:25:26.253Z,1.36
2022-07-30T08:26:13.335Z,1.36
2022-07-30T08:27:12.248Z,1.36
2022-07-30T08:28:38.318Z,1.58
2022-07-30T08:29:19.025Z,1.02
2022-07-30T08:30:10.224Z,0.81
2022-07-30T08:31:14.245Z,0.81
2022-07-30T08:32:17.855Z,0.81
2022-07-30T08:33:12.173Z,1.15
2022-07-30T08:34:17.053Z,0.92
2022-07-30T08:35:13.040Z,0.92
2022-07-30T08:36:12.485Z,0.89
2022-07-30T08:37:16.840Z,0.89
2022-07-30T08:38:13.587Z,1.14
2022-07-30T08:39:15.755Z,0.62
2022-07-30T08:40:06.903Z,0.99
2022-07-30T08:41:15.575Z,0.86
2022-07-30T08:42:15.938Z,0.86
2022-07-30T08:43:10.970Z,1.31
2022-07-30T08:44:20.195Z,1.31
2022-07-30T08:45:36.555Z,0.65
2022-07-30T08:46:12.216Z,0.65
2022-07-30T08:47:11.803Z,1.22
2022-07-30T08:48:18.855Z,1.22
2022-07-30T08:49:13.571Z,1.08
2022-07-30T08:50:12.784Z,1.28
2022-07-30T08:51:12.987Z,0.88
2022-07-30T08:52:13.670Z,0.88
2022-07-30T08:53:12.900Z,1.54
2022-07-30T08:54:11.576Z,1.54
2022-07-30T08:55:13.107Z,1.54
2022-07-30T08:56:17.200Z,1.31
2022-07-30T08:57:16.308Z,1.25
2022-07-30T08:58:14.576Z,1.08
2022-07-30T08:59:14.202Z,1.08
2022-07-30T09:00:12.413Z,0.79
2022-07-30T09:01:13.936Z,0.79
2022-07-30T09:02:15.101Z,1.11
2022-07-30T09:03:10.067Z,1.17
2022-07-30T09:04:10.694Z,1.17
2022-07-30T09:05:13.714Z,1.12
2022-07-30T09:06:04.932Z,1.12
2022-07-30T09:07:10.240Z,1.54
2022-07-30T09:08:20.806Z,1.54
2022-07-30T09:09:13.828Z,0.75
2022-07-30T09:10:13.363Z,1.05
2022-07-30T09:11:14.767Z,1.27
2022-07-30T09:12:13.546Z,1.27
2022-07-30T09:13:15.669Z,1.27
2022-07-30T09:14:13.832Z,1.5
2022-07-30T09:15:14.067Z,1.5
2022-07-30T09:16:14.583Z,1.49
2022-07-30T09:17:14.664Z,1.06
2022-07-30T09:18:11.337Z,0.96
2022-07-30T09:19:15.700Z,0.96
2022-07-30T09:20:10.558Z,0.96
2022-07-30T09:21:18.737Z,0.96
2022-07-30T09:22:10.254Z,0.81
2022-07-30T09:23:15.062Z,0.81
2022-07-30T09:24:15.945Z,0.81
2022-07-30T09:25:11.768Z,1.01
2022-07-30T09:26:14.655Z,1.01
2022-07-30T09:27:13.951Z,1.51
2022-07-30T09:28:18.688Z,1.51
2022-07-30T09:29:12.588Z,1.34
2022-07-30T09:30:11.573Z,1.15
2022-07-30T09:31:15.739Z,1.72
2022-07-30T09:32:14.412Z,1.24
2022-07-30T09:33:14.455Z,1.24
2022-07-30T09:34:11.086Z,0.97
2022-07-30T09:35:11.040Z,1.19
2022-07-30T09:36:14.306Z,1.19
2022-07-30T09:37:15.023Z,0.91
2022-07-30T09:38:08.677Z,0.91
2022-07-30T09:39:11.002Z,0.79
2022-07-30T09:40:17.032Z,0.79
2022-07-30T09:41:39.881Z,1.02
2022-07-30T09:42:11.717Z,1.02
2022-07-30T09:43:12.370Z,1.02
2022-07-30T09:44:14.302Z,1.52
2022-07-30T09:45:24.112Z,1.52
2022-07-30T09:46:04.919Z,1.52
2022-07-30T09:47:12.961Z,1.69
2022-07-30T09:48:15.778Z,0.74
2022-07-30T09:49:11.550Z,0.96
2022-07-30T09:50:12.396Z,0.96
2022-07-30T09:51:19.322Z,1.52
2022-07-30T09:52:13.737Z,1.01
2022-07-30T09:53:14.303Z,1.01
2022-07-30T09:54:14.058Z,1.18
2022-07-30T09:55:13.408Z,1.09
2022-07-30T09:56:04.567Z,1.41
2022-07-30T09:57:29.271Z,1.02
2022-07-30T09:58:16.674Z,1.64
2022-07-30T09:59:21.747Z,1.64
2022-07-30T10:00:12.041Z,1.29
2022-07-30T10:01:12.342Z,1.01
2022-07-30T10:02:16.534Z,1.01
2022-07-30T10:03:32.890Z,0.97
2022-07-30T10:04:14.608Z,0.97
2022-07-30T10:05:13.786Z,2.81
2022-07-30T10:06:18.309Z,1.2
2022-07-30T10:07:14.649Z,1.71
2022-07-30T10:08:21.212Z,1.06
2022-07-30T10:09:18.960Z,1.06
2022-07-30T10:10:08.574Z,1.06
2022-07-30T10:11:15.574Z,1.36
2022-07-30T10:12:16.739Z,1.36
2022-07-30T10:13:17.912Z,0.86
2022-07-30T10:14:12.467Z,0.86
2022-07-30T10:15:15.710Z,0.86
2022-07-30T10:16:12.469Z,1.39
2022-07-30T10:17:19.706Z,1.07
2022-07-30T10:18:15.586Z,1.26
2022-07-30T10:19:23.155Z,1.26
2022-07-30T10:20:14.504Z,1.07
2022-07-30T10:21:10.529Z,0.87
2022-07-30T10:22:13.679Z,1.11
2022-07-30T10:23:19.343Z,1.34
2022-07-30T10:24:11.596Z,0.96
2022-07-30T10:25:18.364Z,1.15
2022-07-30T10:26:13.412Z,1.15
2022-07-30T10:27:14.016Z,1.84
2022-07-30T10:28:11.646Z,0.96
2022-07-30T10:29:18.092Z,0.96
2022-07-30T10:30:15.878Z,0.96
2022-07-30T10:31:54.149Z,1.31
2022-07-30T10:32:15.629Z,1.1
2022-07-30T10:33:39.976Z,1.24
2022-07-30T10:34:16.030Z,0.69
2022-07-30T10:35:38.233Z,1.04
2022-07-30T10:36:05.005Z,1.04
2022-07-30T10:37:15.067Z,1.04
2022-07-30T10:38:16.507Z,1.28
2022-07-30T10:39:17.833Z,0.68
2022-07-30T10:40:14.556Z,1.06
2022-07-30T10:41:17.095Z,1.06
2022-07-30T10:42:09.170Z,0.78
2022-07-30T10:43:18.087Z,1.31
2022-07-30T10:44:17.893Z,1.06
2022-07-30T10:45:19.881Z,1.06
2022-07-30T10:46:25.096Z,1.24
2022-07-30T10:47:18.422Z,0.86
2022-07-30T10:48:12.779Z,0.86
2022-07-30T10:49:21.408Z,1.12
2022-07-30T10:50:13.968Z,1.12
2022-07-30T10:51:34.633Z,1.18
2022-07-30T10:52:05.206Z,1.18
2022-07-30T10:53:23.633Z,0.85
2022-07-30T10:54:13.890Z,0.89
2022-07-30T10:55:17.891Z,0.89
2022-07-30T10:56:18.449Z,1.19
2022-07-30T10:57:06.199Z,1.19
2022-07-30T10:58:22.942Z,0.98
2022-07-30T10:59:10.798Z,1.04
2022-07-30T11:00:12.059Z,1.04
2022-07-30T11:01:20.572Z,0.87
2022-07-30T11:02:12.153Z,0.87
2022-07-30T11:03:17.243Z,0.88
2022-07-30T11:04:13.101Z,0.88
2022-07-30T11:05:12.705Z,0.92
2022-07-30T11:06:10.749Z,1.63
2022-07-30T11:07:17.834Z,1.63
2022-07-30T11:08:16.423Z,0.86
2022-07-30T11:09:13.625Z,0.99
2022-07-30T11:10:13.633Z,1.19
2022-07-30T11:11:59.800Z,1.19
2022-07-30T11:12:18.247Z,1.19
2022-07-30T11:13:12.943Z,0.99
2022-07-30T11:14:12.742Z,0.69
2022-07-30T11:15:20.705Z,0.69
2022-07-30T11:16:13.049Z,0.69
2022-07-30T11:17:12.279Z,0.68
2022-07-30T11:18:15.709Z,1.27
2022-07-30T11:19:59.554Z,1.1
2022-07-30T11:20:05.565Z,1.1
2022-07-30T11:21:15.602Z,1.05
2022-07-30T11:22:15.054Z,0.94
2022-07-30T11:23:16.103Z,1.09
2022-07-30T11:24:16.359Z,0.87
2022-07-30T11:25:15.249Z,0.87
2022-07-30T11:26:19.214Z,0.87
2022-07-30T11:27:16.716Z,0.82
2022-07-30T11:28:10.274Z,0.98
2022-07-30T11:29:34.783Z,0.98
2022-07-30T11:30:19.063Z,0.68
2022-07-30T11:31:12.422Z,0.68
2022-07-30T11:32:15.827Z,0.65
2022-07-30T11:33:15.381Z,1.37
2022-07-30T11:34:10.844Z,1.37
2022-07-30T11:35:15.406Z,0.94
2022-07-30T11:36:16.006Z,0.99
2022-07-30T11:37:29.681Z,0.88
2022-07-30T11:38:22.308Z,0.88
2022-07-30T11:39:17.106Z,0.85
2022-07-30T11:40:06.479Z,0.85
2022-07-30T11:41:13.327Z,0.58
2022-07-30T11:42:13.986Z,0.58
2022-07-30T11:43:13.542Z,0.58
2022-07-30T11:44:15.477Z,0.7
2022-07-30T11:45:15.384Z,0.79
2022-07-30T11:46:17.681Z,0.79
2022-07-30T11:47:11.560Z,0.79
2022-07-30T11:48:12.293Z,0.88
2022-07-30T11:49:12.201Z,0.88
2022-07-30T11:50:12.050Z,0.74
2022-07-30T11:51:15.556Z,0.74
2022-07-30T11:52:14.235Z,0.68
2022-07-30T11:53:13.250Z,0.68
2022-07-30T11:54:11.625Z,0.84
2022-07-30T11:55:13.042Z,0.71
2022-07-30T11:56:16.871Z,0.71
2022-07-30T11:57:14.828Z,0.71
2022-07-30T11:58:13.003Z,0.89
2022-07-30T11:59:12.779Z,0.89
2022-07-30T12:00:15.620Z,0.72
2022-07-30T12:01:13.832Z,0.7
2022-07-30T12:02:13.869Z,0.7
2022-07-30T12:03:13.257Z,0.74
2022-07-30T12:04:16.597Z,0.92
2022-07-30T12:05:15.185Z,0.92
2022-07-30T12:06:13.497Z,1.65
2022-07-30T12:07:15.761Z,1.65
2022-07-30T12:08:09.449Z,1.23
2022-07-30T12:09:23.114Z,0.95
2022-07-30T12:10:07.221Z,0.73
2022-07-30T12:11:16.951Z,0.73
2022-07-30T12:12:15.075Z,0.64
2022-07-30T12:13:11.895Z,0.64
2022-07-30T12:14:15.874Z,0.63
2022-07-30T12:15:16.806Z,1.04
2022-07-30T12:16:11.778Z,1.32
2022-07-30T12:17:17.606Z,0.54
2022-07-30T12:18:27.933Z,0.54
2022-07-30T12:19:13.016Z,0.71
2022-07-30T12:20:11.749Z,0.54
2022-07-30T12:21:15.879Z,0.54
2022-07-30T12:22:11.431Z,0.72
2022-07-30T12:23:14.734Z,0.92
2022-07-30T12:24:12.150Z,0.92
2022-07-30T12:25:09.769Z,0.95
2022-07-30T12:26:12.266Z,0.95
2022-07-30T12:27:17.465Z,0.95
2022-07-30T12:28:08.190Z,0.74
2022-07-30T12:29:16.109Z,0.61
2022-07-30T12:30:16.086Z,0.86
2022-07-30T12:31:13.651Z,0.86
2022-07-30T12:32:15.121Z,0.86
2022-07-30T12:33:12.065Z,1.14
2022-07-30T12:34:14.192Z,0.71
2022-07-30T12:35:15.087Z,0.64
2022-07-30T12:36:14.858Z,0.94
2022-07-30T12:37:17.315Z,0.69
2022-07-30T12:38:12.251Z,0.84
2022-07-30T12:39:16.887Z,0.74
2022-07-30T12:40:14.906Z,0.74
2022-07-30T12:41:16.592Z,0.92
2022-07-30T12:42:13.136Z,0.79
2022-07-30T12:43:15.986Z,0.82
2022-07-30T12:44:15.089Z,0.99
2022-07-30T12:45:13.886Z,0.84
2022-07-30T12:46:17.240Z,0.9
2022-07-30T12:47:15.165Z,1.19
2022-07-30T12:48:17.490Z,0.98
2022-07-30T12:49:24.789Z,0.98
2022-07-30T12:50:11.587Z,0.99
2022-07-30T12:51:16.046Z,0.99
2022-07-30T12:52:28.023Z,0.91
2022-07-30T12:53:10.855Z,0.91
2022-07-30T12:54:13.601Z,0.84
2022-07-30T12:55:13.515Z,1.24
2022-07-30T12:56:14.196Z,1.24
2022-07-30T12:57:16.277Z,0.58
2022-07-30T12:58:11.428Z,0.91
2022-07-30T12:59:16.441Z,0.91
2022-07-30T13:00:13.100Z,0.81
2022-07-30T13:01:15.120Z,0.74
2022-07-30T13:02:16.093Z,0.7
2022-07-30T13:03:14.331Z,0.7
2022-07-30T13:04:15.056Z,0.85
2022-07-30T13:05:15.839Z,0.85
2022-07-30T13:06:14.385Z,0.53
2022-07-30T13:07:15.070Z,0.53
2022-07-30T13:08:13.281Z,0.59
2022-07-30T13:09:16.512Z,0.82
2022-07-30T13:10:13.898Z,0.82
2022-07-30T13:11:11.837Z,0.82
2022-07-30T13:12:16.481Z,1.19
2022-07-30T13:13:12.833Z,0.84
2022-07-30T13:14:14.098Z,0.84
2022-07-30T13:15:13.571Z,1.13
2022-07-30T13:16:14.996Z,1.13
2022-07-30T13:17:14.411Z,1.13
2022-07-30T13:18:18.393Z,0.45
2022-07-30T13:19:13.628Z,0.64
2022-07-30T13:20:20.252Z,0.52
2022-07-30T13:21:12.595Z,0.69